sensor_id;sensor_type;location;lat;lon;timestamp;P1;durP1;ratioP1;P2;durP2;ratioP2
6388;SDS011;3227;42.654;23.360;2023-09-08T00:01:14;15.10;;;10.93;;
6388;SDS011;3227;42.654;23.360;2023-09-08T00:03:42;15.48;;;10.23;;
6388;SDS011;3227;42.654;23.360;2023-09-08T00:06:09;15.43;;;10.13;;
6388;SDS011;3227;42.654;23.360;2023-09-08T00:08:35;18.40;;;9.93;;
6388;SDS011;3227;42.654;23.360;2023-09-08T00:11:02;15.10;;;9.73;;
6388;SDS011;3227;42.654;23.360;2023-09-08T00:13:29;14.32;;;10.07;;
6388;SDS011;3227;42.654;23.360;2023-09-08T00:15:56;12.60;;;8.48;;
6388;SDS011;3227;42.654;23.360;2023-09-08T00:18:23;13.52;;;8.55;;
6388;SDS011;3227;42.654;23.360;2023-09-08T00:20:51;10.48;;;7.93;;
6388;SDS011;3227;42.654;23.360;2023-09-08T00:23:18;13.63;;;7.22;;
6388;SDS011;3227;42.654;23.360;2023-09-08T00:25:45;15.77;;;7.60;;
6388;SDS011;3227;42.654;23.360;2023-09-08T00:28:12;12.98;;;7.50;;
6388;SDS011;3227;42.654;23.360;2023-09-08T00:30:39;11.95;;;6.68;;
6388;SDS011;3227;42.654;23.360;2023-09-08T00:33:06;9.52;;;6.72;;
6388;SDS011;3227;42.654;23.360;2023-09-08T00:35:34;10.50;;;6.80;;
6388;SDS011;3227;42.654;23.360;2023-09-08T00:38:02;12.48;;;5.93;;
6388;SDS011;3227;42.654;23.360;2023-09-08T00:40:31;11.38;;;6.05;;
6388;SDS011;3227;42.654;23.360;2023-09-08T00:43:44;11.13;;;6.05;;
6388;SDS011;3227;42.654;23.360;2023-09-08T00:46:11;9.35;;;5.75;;
6388;SDS011;3227;42.654;23.360;2023-09-08T00:48:39;9.52;;;5.40;;
6388;SDS011;3227;42.654;23.360;2023-09-08T00:51:06;12.98;;;6.15;;
6388;SDS011;3227;42.654;23.360;2023-09-08T00:53:36;9.88;;;5.47;;
6388;SDS011;3227;42.654;23.360;2023-09-08T00:56:03;10.85;;;5.50;;
6388;SDS011;3227;42.654;23.360;2023-09-08T00:58:30;12.30;;;5.55;;
6388;SDS011;3227;42.654;23.360;2023-09-08T01:00:58;10.88;;;5.85;;
6388;SDS011;3227;42.654;23.360;2023-09-08T01:03:24;10.38;;;5.80;;
6388;SDS011;3227;42.654;23.360;2023-09-08T01:05:51;9.15;;;5.40;;
6388;SDS011;3227;42.654;23.360;2023-09-08T01:08:19;10.88;;;5.65;;
6388;SDS011;3227;42.654;23.360;2023-09-08T01:10:47;10.43;;;5.78;;
6388;SDS011;3227;42.654;23.360;2023-09-08T01:13:14;12.18;;;5.82;;
6388;SDS011;3227;42.654;23.360;2023-09-08T01:15:41;10.55;;;5.68;;
6388;SDS011;3227;42.654;23.360;2023-09-08T01:18:07;10.00;;;5.28;;
6388;SDS011;3227;42.654;23.360;2023-09-08T01:20:35;13.02;;;5.65;;
6388;SDS011;3227;42.654;23.360;2023-09-08T01:23:17;8.90;;;5.68;;
6388;SDS011;3227;42.654;23.360;2023-09-08T01:25:50;10.50;;;6.25;;
6388;SDS011;3227;42.654;23.360;2023-09-08T01:28:19;10.15;;;5.95;;
6388;SDS011;3227;42.654;23.360;2023-09-08T01:30:48;9.48;;;5.10;;
6388;SDS011;3227;42.654;23.360;2023-09-08T01:33:16;11.88;;;5.72;;
6388;SDS011;3227;42.654;23.360;2023-09-08T01:35:43;8.60;;;5.57;;
6388;SDS011;3227;42.654;23.360;2023-09-08T01:38:10;10.55;;;6.30;;
6388;SDS011;3227;42.654;23.360;2023-09-08T01:40:37;10.00;;;5.75;;
6388;SDS011;3227;42.654;23.360;2023-09-08T01:43:05;9.77;;;5.90;;
6388;SDS011;3227;42.654;23.360;2023-09-08T01:45:32;9.23;;;5.20;;
6388;SDS011;3227;42.654;23.360;2023-09-08T01:47:59;11.50;;;5.75;;
6388;SDS011;3227;42.654;23.360;2023-09-08T01:50:26;9.45;;;5.60;;
6388;SDS011;3227;42.654;23.360;2023-09-08T01:52:52;10.32;;;6.30;;
6388;SDS011;3227;42.654;23.360;2023-09-08T01:55:19;13.48;;;6.40;;
6388;SDS011;3227;42.654;23.360;2023-09-08T01:57:46;11.65;;;6.57;;
6388;SDS011;3227;42.654;23.360;2023-09-08T02:00:14;10.30;;;5.63;;
6388;SDS011;3227;42.654;23.360;2023-09-08T02:02:41;11.23;;;6.05;;
6388;SDS011;3227;42.654;23.360;2023-09-08T02:05:08;9.93;;;5.85;;
6388;SDS011;3227;42.654;23.360;2023-09-08T02:07:35;11.50;;;6.20;;
6388;SDS011;3227;42.654;23.360;2023-09-08T02:10:01;13.45;;;6.72;;
6388;SDS011;3227;42.654;23.360;2023-09-08T02:12:28;11.48;;;7.07;;
6388;SDS011;3227;42.654;23.360;2023-09-08T02:14:55;9.88;;;6.70;;
6388;SDS011;3227;42.654;23.360;2023-09-08T02:17:23;10.52;;;6.70;;
6388;SDS011;3227;42.654;23.360;2023-09-08T02:19:50;13.27;;;6.88;;
6388;SDS011;3227;42.654;23.360;2023-09-08T02:22:17;14.40;;;6.95;;
6388;SDS011;3227;42.654;23.360;2023-09-08T02:24:44;10.90;;;6.40;;
6388;SDS011;3227;42.654;23.360;2023-09-08T02:27:11;11.73;;;6.72;;
6388;SDS011;3227;42.654;23.360;2023-09-08T02:29:38;11.70;;;6.65;;
6388;SDS011;3227;42.654;23.360;2023-09-08T02:32:05;12.38;;;6.68;;
6388;SDS011;3227;42.654;23.360;2023-09-08T02:34:35;11.80;;;6.70;;
6388;SDS011;3227;42.654;23.360;2023-09-08T02:37:03;13.70;;;7.50;;
6388;SDS011;3227;42.654;23.360;2023-09-08T02:39:30;11.35;;;6.53;;
6388;SDS011;3227;42.654;23.360;2023-09-08T02:41:57;11.60;;;6.93;;
6388;SDS011;3227;42.654;23.360;2023-09-08T02:44:23;14.32;;;7.97;;
6388;SDS011;3227;42.654;23.360;2023-09-08T02:46:52;15.95;;;7.03;;
6388;SDS011;3227;42.654;23.360;2023-09-08T02:49:18;12.07;;;7.32;;
6388;SDS011;3227;42.654;23.360;2023-09-08T02:51:46;11.82;;;6.97;;
6388;SDS011;3227;42.654;23.360;2023-09-08T02:54:13;14.00;;;7.40;;
6388;SDS011;3227;42.654;23.360;2023-09-08T02:56:40;11.38;;;7.55;;
6388;SDS011;3227;42.654;23.360;2023-09-08T02:59:07;12.05;;;7.25;;
6388;SDS011;3227;42.654;23.360;2023-09-08T03:01:33;11.35;;;7.50;;
6388;SDS011;3227;42.654;23.360;2023-09-08T03:04:01;13.45;;;7.72;;
6388;SDS011;3227;42.654;23.360;2023-09-08T03:06:42;11.13;;;7.45;;
6388;SDS011;3227;42.654;23.360;2023-09-08T03:09:10;11.90;;;8.10;;
6388;SDS011;3227;42.654;23.360;2023-09-08T03:11:37;15.95;;;7.70;;
6388;SDS011;3227;42.654;23.360;2023-09-08T03:14:04;18.00;;;8.40;;
6388;SDS011;3227;42.654;23.360;2023-09-08T03:16:31;13.88;;;8.00;;
6388;SDS011;3227;42.654;23.360;2023-09-08T03:18:57;11.10;;;7.65;;
6388;SDS011;3227;42.654;23.360;2023-09-08T03:21:24;13.02;;;8.15;;
6388;SDS011;3227;42.654;23.360;2023-09-08T03:23:51;13.55;;;8.45;;
6388;SDS011;3227;42.654;23.360;2023-09-08T03:26:19;14.40;;;8.13;;
6388;SDS011;3227;42.654;23.360;2023-09-08T03:28:46;13.80;;;8.80;;
6388;SDS011;3227;42.654;23.360;2023-09-08T03:31:12;12.60;;;8.15;;
6388;SDS011;3227;42.654;23.360;2023-09-08T03:33:39;11.50;;;7.85;;
6388;SDS011;3227;42.654;23.360;2023-09-08T03:36:07;11.20;;;7.82;;
6388;SDS011;3227;42.654;23.360;2023-09-08T03:38:34;13.35;;;8.10;;
6388;SDS011;3227;42.654;23.360;2023-09-08T03:41:02;13.70;;;8.85;;
6388;SDS011;3227;42.654;23.360;2023-09-08T03:43:30;11.85;;;8.38;;
6388;SDS011;3227;42.654;23.360;2023-09-08T03:45:57;12.65;;;8.65;;
6388;SDS011;3227;42.654;23.360;2023-09-08T03:48:23;16.52;;;8.73;;
6388;SDS011;3227;42.654;23.360;2023-09-08T03:50:50;15.98;;;8.55;;
6388;SDS011;3227;42.654;23.360;2023-09-08T03:53:17;13.70;;;8.55;;
6388;SDS011;3227;42.654;23.360;2023-09-08T03:55:44;12.55;;;8.10;;
6388;SDS011;3227;42.654;23.360;2023-09-08T03:58:10;18.10;;;9.27;;
6388;SDS011;3227;42.654;23.360;2023-09-08T04:00:38;17.67;;;9.15;;
6388;SDS011;3227;42.654;23.360;2023-09-08T04:03:05;13.73;;;8.57;;
6388;SDS011;3227;42.654;23.360;2023-09-08T04:05:32;12.63;;;8.60;;
6388;SDS011;3227;42.654;23.360;2023-09-08T04:07:59;10.88;;;8.35;;
6388;SDS011;3227;42.654;23.360;2023-09-08T04:10:26;15.27;;;9.45;;
6388;SDS011;3227;42.654;23.360;2023-09-08T04:12:53;15.15;;;8.95;;
6388;SDS011;3227;42.654;23.360;2023-09-08T04:18:07;13.88;;;7.82;;
6388;SDS011;3227;42.654;23.360;2023-09-08T04:20:34;13.85;;;8.52;;
6388;SDS011;3227;42.654;23.360;2023-09-08T04:23:01;14.18;;;7.40;;
6388;SDS011;3227;42.654;23.360;2023-09-08T04:25:28;16.80;;;8.13;;
6388;SDS011;3227;42.654;23.360;2023-09-08T04:27:54;15.07;;;8.27;;
6388;SDS011;3227;42.654;23.360;2023-09-08T04:30:21;17.23;;;8.20;;
6388;SDS011;3227;42.654;23.360;2023-09-08T04:32:49;14.40;;;7.85;;
6388;SDS011;3227;42.654;23.360;2023-09-08T04:35:16;16.50;;;7.80;;
6388;SDS011;3227;42.654;23.360;2023-09-08T04:37:43;13.68;;;7.60;;
6388;SDS011;3227;42.654;23.360;2023-09-08T04:40:10;13.18;;;8.30;;
6388;SDS011;3227;42.654;23.360;2023-09-08T04:42:36;13.25;;;7.57;;
6388;SDS011;3227;42.654;23.360;2023-09-08T04:45:04;11.60;;;7.80;;
6388;SDS011;3227;42.654;23.360;2023-09-08T04:47:31;12.93;;;7.43;;
6388;SDS011;3227;42.654;23.360;2023-09-08T04:49:59;15.30;;;8.80;;
6388;SDS011;3227;42.654;23.360;2023-09-08T04:52:26;15.77;;;8.40;;
6388;SDS011;3227;42.654;23.360;2023-09-08T04:54:53;30.70;;;15.68;;
6388;SDS011;3227;42.654;23.360;2023-09-08T04:57:19;27.80;;;13.88;;
6388;SDS011;3227;42.654;23.360;2023-09-08T04:59:46;18.70;;;8.48;;
6388;SDS011;3227;42.654;23.360;2023-09-08T05:02:13;15.88;;;7.32;;
6388;SDS011;3227;42.654;23.360;2023-09-08T05:04:40;19.05;;;6.90;;
6388;SDS011;3227;42.654;23.360;2023-09-08T05:07:08;12.93;;;7.70;;
6388;SDS011;3227;42.654;23.360;2023-09-08T05:09:35;11.32;;;6.95;;
6388;SDS011;3227;42.654;23.360;2023-09-08T05:12:02;13.90;;;8.55;;
6388;SDS011;3227;42.654;23.360;2023-09-08T05:14:29;15.32;;;7.28;;
6388;SDS011;3227;42.654;23.360;2023-09-08T05:16:56;11.32;;;7.25;;
6388;SDS011;3227;42.654;23.360;2023-09-08T05:19:22;12.88;;;6.50;;
6388;SDS011;3227;42.654;23.360;2023-09-08T05:21:50;10.60;;;6.88;;
6388;SDS011;3227;42.654;23.360;2023-09-08T05:24:18;14.43;;;7.00;;
6388;SDS011;3227;42.654;23.360;2023-09-08T05:26:46;13.20;;;6.82;;
6388;SDS011;3227;42.654;23.360;2023-09-08T05:29:13;11.10;;;6.75;;
6388;SDS011;3227;42.654;23.360;2023-09-08T05:31:39;13.30;;;7.15;;
6388;SDS011;3227;42.654;23.360;2023-09-08T05:34:06;13.50;;;6.63;;
6388;SDS011;3227;42.654;23.360;2023-09-08T05:36:33;14.95;;;7.53;;
6388;SDS011;3227;42.654;23.360;2023-09-08T05:39:02;15.00;;;8.95;;
6388;SDS011;3227;42.654;23.360;2023-09-08T05:41:30;12.88;;;7.13;;
6388;SDS011;3227;42.654;23.360;2023-09-08T05:43:58;12.10;;;7.13;;
6388;SDS011;3227;42.654;23.360;2023-09-08T05:46:26;14.10;;;7.90;;
6388;SDS011;3227;42.654;23.360;2023-09-08T05:48:53;11.10;;;5.93;;
6388;SDS011;3227;42.654;23.360;2023-09-08T05:51:19;12.55;;;5.78;;
6388;SDS011;3227;42.654;23.360;2023-09-08T05:53:47;12.23;;;6.00;;
6388;SDS011;3227;42.654;23.360;2023-09-08T05:56:14;10.45;;;5.60;;
6388;SDS011;3227;42.654;23.360;2023-09-08T05:58:42;9.95;;;5.97;;
6388;SDS011;3227;42.654;23.360;2023-09-08T06:01:09;8.55;;;5.10;;
6388;SDS011;3227;42.654;23.360;2023-09-08T06:03:36;13.80;;;5.78;;
6388;SDS011;3227;42.654;23.360;2023-09-08T06:06:02;10.43;;;6.07;;
6388;SDS011;3227;42.654;23.360;2023-09-08T06:08:29;9.05;;;5.45;;
6388;SDS011;3227;42.654;23.360;2023-09-08T06:10:56;15.73;;;6.05;;
6388;SDS011;3227;42.654;23.360;2023-09-08T06:13:23;12.20;;;5.43;;
6388;SDS011;3227;42.654;23.360;2023-09-08T06:15:51;13.93;;;6.28;;
6388;SDS011;3227;42.654;23.360;2023-09-08T06:18:18;12.68;;;5.55;;
6388;SDS011;3227;42.654;23.360;2023-09-08T06:20:45;11.18;;;5.60;;
6388;SDS011;3227;42.654;23.360;2023-09-08T06:23:12;10.25;;;5.50;;
6388;SDS011;3227;42.654;23.360;2023-09-08T06:25:39;10.55;;;4.85;;
6388;SDS011;3227;42.654;23.360;2023-09-08T06:28:06;11.82;;;4.88;;
6388;SDS011;3227;42.654;23.360;2023-09-08T06:30:33;12.95;;;5.45;;
6388;SDS011;3227;42.654;23.360;2023-09-08T06:33:01;10.15;;;4.35;;
6388;SDS011;3227;42.654;23.360;2023-09-08T06:35:29;9.90;;;4.50;;
6388;SDS011;3227;42.654;23.360;2023-09-08T06:37:56;6.53;;;3.92;;
6388;SDS011;3227;42.654;23.360;2023-09-08T06:40:23;9.38;;;4.18;;
6388;SDS011;3227;42.654;23.360;2023-09-08T06:42:50;7.80;;;3.90;;
6388;SDS011;3227;42.654;23.360;2023-09-08T06:45:17;9.73;;;4.10;;
6388;SDS011;3227;42.654;23.360;2023-09-08T06:47:44;9.63;;;4.68;;
6388;SDS011;3227;42.654;23.360;2023-09-08T06:50:12;9.57;;;4.35;;
6388;SDS011;3227;42.654;23.360;2023-09-08T06:52:38;13.75;;;4.40;;
6388;SDS011;3227;42.654;23.360;2023-09-08T06:55:05;10.88;;;4.60;;
6388;SDS011;3227;42.654;23.360;2023-09-08T06:57:33;10.70;;;4.45;;
6388;SDS011;3227;42.654;23.360;2023-09-08T06:59:59;10.15;;;4.35;;
6388;SDS011;3227;42.654;23.360;2023-09-08T07:02:26;9.07;;;4.43;;
6388;SDS011;3227;42.654;23.360;2023-09-08T07:04:53;8.60;;;4.35;;
6388;SDS011;3227;42.654;23.360;2023-09-08T07:07:21;8.13;;;4.13;;
6388;SDS011;3227;42.654;23.360;2023-09-08T07:10:02;7.35;;;4.10;;
6388;SDS011;3227;42.654;23.360;2023-09-08T07:12:29;11.75;;;5.85;;
6388;SDS011;3227;42.654;23.360;2023-09-08T07:14:56;9.10;;;4.38;;
6388;SDS011;3227;42.654;23.360;2023-09-08T07:17:23;8.00;;;4.03;;
6388;SDS011;3227;42.654;23.360;2023-09-08T07:19:50;10.52;;;3.75;;
6388;SDS011;3227;42.654;23.360;2023-09-08T07:22:17;9.20;;;4.40;;
6388;SDS011;3227;42.654;23.360;2023-09-08T07:24:45;13.35;;;4.00;;
6388;SDS011;3227;42.654;23.360;2023-09-08T07:27:12;7.13;;;3.78;;
6388;SDS011;3227;42.654;23.360;2023-09-08T07:29:39;8.38;;;4.05;;
6388;SDS011;3227;42.654;23.360;2023-09-08T07:32:06;10.43;;;4.32;;
6388;SDS011;3227;42.654;23.360;2023-09-08T07:34:33;8.30;;;4.78;;
6388;SDS011;3227;42.654;23.360;2023-09-08T07:37:00;8.23;;;4.28;;
6388;SDS011;3227;42.654;23.360;2023-09-08T07:39:27;8.50;;;4.03;;
6388;SDS011;3227;42.654;23.360;2023-09-08T07:41:56;6.60;;;3.90;;
6388;SDS011;3227;42.654;23.360;2023-09-08T07:44:23;8.20;;;4.28;;
6388;SDS011;3227;42.654;23.360;2023-09-08T07:46:50;8.45;;;4.38;;
6388;SDS011;3227;42.654;23.360;2023-09-08T07:49:17;16.58;;;4.93;;
6388;SDS011;3227;42.654;23.360;2023-09-08T07:51:44;8.43;;;4.38;;
6388;SDS011;3227;42.654;23.360;2023-09-08T07:54:12;7.90;;;4.30;;
6388;SDS011;3227;42.654;23.360;2023-09-08T07:56:39;8.13;;;4.80;;
6388;SDS011;3227;42.654;23.360;2023-09-08T07:59:08;9.10;;;3.90;;
6388;SDS011;3227;42.654;23.360;2023-09-08T08:01:34;14.85;;;5.20;;
6388;SDS011;3227;42.654;23.360;2023-09-08T08:04:01;8.43;;;4.50;;
6388;SDS011;3227;42.654;23.360;2023-09-08T08:06:28;8.55;;;4.18;;
6388;SDS011;3227;42.654;23.360;2023-09-08T08:08:55;9.18;;;4.78;;
6388;SDS011;3227;42.654;23.360;2023-09-08T08:11:22;12.25;;;4.70;;
6388;SDS011;3227;42.654;23.360;2023-09-08T08:13:50;8.40;;;3.70;;
6388;SDS011;3227;42.654;23.360;2023-09-08T08:16:19;7.55;;;4.03;;
6388;SDS011;3227;42.654;23.360;2023-09-08T08:18:47;11.85;;;4.57;;
6388;SDS011;3227;42.654;23.360;2023-09-08T08:21:13;7.13;;;3.90;;
6388;SDS011;3227;42.654;23.360;2023-09-08T08:23:40;16.00;;;6.75;;
6388;SDS011;3227;42.654;23.360;2023-09-08T08:26:12;8.15;;;4.32;;
6388;SDS011;3227;42.654;23.360;2023-09-08T08:28:39;15.23;;;8.07;;
6388;SDS011;3227;42.654;23.360;2023-09-08T08:31:06;18.35;;;4.90;;
6388;SDS011;3227;42.654;23.360;2023-09-08T08:33:34;9.07;;;4.40;;
6388;SDS011;3227;42.654;23.360;2023-09-08T08:36:01;9.75;;;4.50;;
6388;SDS011;3227;42.654;23.360;2023-09-08T08:38:28;6.57;;;3.80;;
6388;SDS011;3227;42.654;23.360;2023-09-08T08:40:57;6.93;;;4.40;;
6388;SDS011;3227;42.654;23.360;2023-09-08T08:43:28;9.75;;;3.80;;
6388;SDS011;3227;42.654;23.360;2023-09-08T08:45:57;10.98;;;4.10;;
6388;SDS011;3227;42.654;23.360;2023-09-08T08:48:24;11.18;;;4.20;;
6388;SDS011;3227;42.654;23.360;2023-09-08T08:50:55;7.72;;;3.70;;
6388;SDS011;3227;42.654;23.360;2023-09-08T08:53:22;7.07;;;3.72;;
6388;SDS011;3227;42.654;23.360;2023-09-08T08:55:50;9.02;;;3.97;;
6388;SDS011;3227;42.654;23.360;2023-09-08T08:58:19;8.18;;;3.80;;
6388;SDS011;3227;42.654;23.360;2023-09-08T09:00:50;7.72;;;3.88;;
6388;SDS011;3227;42.654;23.360;2023-09-08T09:03:18;7.30;;;3.80;;
6388;SDS011;3227;42.654;23.360;2023-09-08T09:05:47;10.27;;;4.05;;
6388;SDS011;3227;42.654;23.360;2023-09-08T09:08:15;11.38;;;4.10;;
6388;SDS011;3227;42.654;23.360;2023-09-08T09:10:43;9.18;;;3.80;;
6388;SDS011;3227;42.654;23.360;2023-09-08T09:13:10;7.10;;;3.72;;
6388;SDS011;3227;42.654;23.360;2023-09-08T09:15:37;9.68;;;4.22;;
6388;SDS011;3227;42.654;23.360;2023-09-08T09:18:05;11.82;;;4.32;;
6388;SDS011;3227;42.654;23.360;2023-09-08T09:20:32;6.55;;;3.92;;
6388;SDS011;3227;42.654;23.360;2023-09-08T09:22:59;9.35;;;3.88;;
6388;SDS011;3227;42.654;23.360;2023-09-08T09:25:28;7.72;;;3.90;;
6388;SDS011;3227;42.654;23.360;2023-09-08T09:27:57;7.57;;;4.07;;
6388;SDS011;3227;42.654;23.360;2023-09-08T09:30:25;9.27;;;4.60;;
6388;SDS011;3227;42.654;23.360;2023-09-08T09:32:59;8.82;;;4.30;;
6388;SDS011;3227;42.654;23.360;2023-09-08T09:35:39;12.55;;;4.00;;
6388;SDS011;3227;42.654;23.360;2023-09-08T09:38:06;8.82;;;4.20;;
6388;SDS011;3227;42.654;23.360;2023-09-08T09:40:34;8.95;;;4.40;;
6388;SDS011;3227;42.654;23.360;2023-09-08T09:43:01;10.38;;;4.32;;
6388;SDS011;3227;42.654;23.360;2023-09-08T09:45:29;8.48;;;3.97;;
6388;SDS011;3227;42.654;23.360;2023-09-08T09:47:56;7.93;;;3.97;;
6388;SDS011;3227;42.654;23.360;2023-09-08T09:50:27;9.55;;;4.10;;
6388;SDS011;3227;42.654;23.360;2023-09-08T09:52:56;7.18;;;4.10;;
6388;SDS011;3227;42.654;23.360;2023-09-08T09:55:41;6.88;;;3.70;;
6388;SDS011;3227;42.654;23.360;2023-09-08T09:58:09;9.30;;;3.95;;
6388;SDS011;3227;42.654;23.360;2023-09-08T10:00:37;9.65;;;3.95;;
6388;SDS011;3227;42.654;23.360;2023-09-08T10:03:05;11.10;;;3.88;;
6388;SDS011;3227;42.654;23.360;2023-09-08T10:05:33;7.30;;;4.15;;
6388;SDS011;3227;42.654;23.360;2023-09-08T10:08:00;9.32;;;4.28;;
6388;SDS011;3227;42.654;23.360;2023-09-08T10:10:27;6.88;;;3.85;;
6388;SDS011;3227;42.654;23.360;2023-09-08T10:12:57;9.65;;;4.28;;
6388;SDS011;3227;42.654;23.360;2023-09-08T10:15:28;6.93;;;4.00;;
6388;SDS011;3227;42.654;23.360;2023-09-08T10:17:57;7.03;;;3.95;;
6388;SDS011;3227;42.654;23.360;2023-09-08T10:20:25;11.15;;;4.50;;
6388;SDS011;3227;42.654;23.360;2023-09-08T10:22:54;9.05;;;4.60;;
6388;SDS011;3227;42.654;23.360;2023-09-08T10:25:26;8.73;;;4.20;;
6388;SDS011;3227;42.654;23.360;2023-09-08T10:27:59;7.47;;;3.88;;
6388;SDS011;3227;42.654;23.360;2023-09-08T10:30:26;12.05;;;4.32;;
6388;SDS011;3227;42.654;23.360;2023-09-08T10:32:52;9.35;;;3.95;;
6388;SDS011;3227;42.654;23.360;2023-09-08T10:35:20;7.38;;;4.13;;
6388;SDS011;3227;42.654;23.360;2023-09-08T10:37:47;9.52;;;4.45;;
6388;SDS011;3227;42.654;23.360;2023-09-08T10:40:21;11.00;;;4.85;;
6388;SDS011;3227;42.654;23.360;2023-09-08T10:42:48;8.10;;;3.90;;
6388;SDS011;3227;42.654;23.360;2023-09-08T10:45:17;8.52;;;4.28;;
6388;SDS011;3227;42.654;23.360;2023-09-08T10:47:55;9.05;;;4.20;;
6388;SDS011;3227;42.654;23.360;2023-09-08T10:50:27;8.20;;;4.22;;
6388;SDS011;3227;42.654;23.360;2023-09-08T10:53:04;8.32;;;4.20;;
6388;SDS011;3227;42.654;23.360;2023-09-08T10:55:36;7.93;;;4.43;;
6388;SDS011;3227;42.654;23.360;2023-09-08T10:58:06;10.85;;;3.72;;
6388;SDS011;3227;42.654;23.360;2023-09-08T11:00:47;9.48;;;4.57;;
6388;SDS011;3227;42.654;23.360;2023-09-08T11:03:25;6.95;;;4.13;;
6388;SDS011;3227;42.654;23.360;2023-09-08T11:05:54;9.50;;;3.90;;
6388;SDS011;3227;42.654;23.360;2023-09-08T11:08:22;8.55;;;4.20;;
6388;SDS011;3227;42.654;23.360;2023-09-08T11:10:48;9.00;;;4.45;;
6388;SDS011;3227;42.654;23.360;2023-09-08T11:13:16;8.73;;;4.45;;
6388;SDS011;3227;42.654;23.360;2023-09-08T11:15:43;7.25;;;3.90;;
6388;SDS011;3227;42.654;23.360;2023-09-08T11:18:11;6.70;;;4.07;;
6388;SDS011;3227;42.654;23.360;2023-09-08T11:20:38;10.40;;;4.35;;
6388;SDS011;3227;42.654;23.360;2023-09-08T11:23:05;7.10;;;4.50;;
6388;SDS011;3227;42.654;23.360;2023-09-08T11:25:32;10.65;;;4.15;;
6388;SDS011;3227;42.654;23.360;2023-09-08T11:27:59;8.45;;;3.97;;
6388;SDS011;3227;42.654;23.360;2023-09-08T11:30:27;8.57;;;4.38;;
6388;SDS011;3227;42.654;23.360;2023-09-08T11:32:54;12.07;;;4.28;;
6388;SDS011;3227;42.654;23.360;2023-09-08T11:35:27;9.43;;;3.95;;
6388;SDS011;3227;42.654;23.360;2023-09-08T11:37:58;11.52;;;4.22;;
6388;SDS011;3227;42.654;23.360;2023-09-08T11:40:27;8.20;;;4.00;;
6388;SDS011;3227;42.654;23.360;2023-09-08T11:42:54;10.07;;;4.60;;
6388;SDS011;3227;42.654;23.360;2023-09-08T11:45:20;7.43;;;3.70;;
6388;SDS011;3227;42.654;23.360;2023-09-08T11:47:48;8.25;;;4.40;;
6388;SDS011;3227;42.654;23.360;2023-09-08T11:50:16;12.88;;;4.35;;
6388;SDS011;3227;42.654;23.360;2023-09-08T11:52:47;9.68;;;4.53;;
6388;SDS011;3227;42.654;23.360;2023-09-08T11:55:14;9.73;;;4.88;;
6388;SDS011;3227;42.654;23.360;2023-09-08T11:57:42;7.47;;;4.53;;
6388;SDS011;3227;42.654;23.360;2023-09-08T12:00:12;6.93;;;4.20;;
6388;SDS011;3227;42.654;23.360;2023-09-08T12:02:43;7.57;;;4.75;;
6388;SDS011;3227;42.654;23.360;2023-09-08T12:05:13;7.32;;;4.25;;
6388;SDS011;3227;42.654;23.360;2023-09-08T12:07:47;7.95;;;4.43;;
6388;SDS011;3227;42.654;23.360;2023-09-08T12:10:14;9.95;;;4.43;;
6388;SDS011;3227;42.654;23.360;2023-09-08T12:12:43;8.27;;;4.32;;
6388;SDS011;3227;42.654;23.360;2023-09-08T12:15:11;7.57;;;4.30;;
6388;SDS011;3227;42.654;23.360;2023-09-08T12:17:47;7.88;;;4.60;;
6388;SDS011;3227;42.654;23.360;2023-09-08T12:20:15;8.27;;;4.40;;
6388;SDS011;3227;42.654;23.360;2023-09-08T12:22:50;8.45;;;4.55;;
6388;SDS011;3227;42.654;23.360;2023-09-08T12:25:22;8.15;;;4.43;;
6388;SDS011;3227;42.654;23.360;2023-09-08T12:27:50;9.10;;;4.55;;
6388;SDS011;3227;42.654;23.360;2023-09-08T12:30:18;7.38;;;4.82;;
6388;SDS011;3227;42.654;23.360;2023-09-08T12:32:46;8.98;;;4.13;;
6388;SDS011;3227;42.654;23.360;2023-09-08T12:35:19;7.95;;;4.40;;
6388;SDS011;3227;42.654;23.360;2023-09-08T12:37:52;10.35;;;4.30;;
6388;SDS011;3227;42.654;23.360;2023-09-08T12:40:26;9.75;;;4.40;;
6388;SDS011;3227;42.654;23.360;2023-09-08T12:42:54;9.52;;;4.57;;
6388;SDS011;3227;42.654;23.360;2023-09-08T12:45:21;7.65;;;4.45;;
6388;SDS011;3227;42.654;23.360;2023-09-08T12:47:48;8.93;;;4.70;;
6388;SDS011;3227;42.654;23.360;2023-09-08T12:50:15;7.80;;;4.38;;
6388;SDS011;3227;42.654;23.360;2023-09-08T12:52:42;11.13;;;4.70;;
6388;SDS011;3227;42.654;23.360;2023-09-08T12:55:11;12.57;;;4.78;;
6388;SDS011;3227;42.654;23.360;2023-09-08T12:57:37;9.27;;;4.60;;
6388;SDS011;3227;42.654;23.360;2023-09-08T13:00:04;11.25;;;4.30;;
6388;SDS011;3227;42.654;23.360;2023-09-08T13:02:32;7.85;;;4.63;;
6388;SDS011;3227;42.654;23.360;2023-09-08T13:04:59;9.60;;;3.95;;
6388;SDS011;3227;42.654;23.360;2023-09-08T13:07:26;8.95;;;4.50;;
6388;SDS011;3227;42.654;23.360;2023-09-08T13:09:54;9.75;;;4.72;;
6388;SDS011;3227;42.654;23.360;2023-09-08T13:12:22;9.05;;;4.70;;
6388;SDS011;3227;42.654;23.360;2023-09-08T13:14:49;7.53;;;4.68;;
6388;SDS011;3227;42.654;23.360;2023-09-08T13:17:15;12.13;;;6.75;;
6388;SDS011;3227;42.654;23.360;2023-09-08T13:19:43;12.80;;;5.07;;
6388;SDS011;3227;42.654;23.360;2023-09-08T13:22:11;7.57;;;4.15;;
6388;SDS011;3227;42.654;23.360;2023-09-08T13:24:38;9.90;;;4.88;;
6388;SDS011;3227;42.654;23.360;2023-09-08T13:27:05;8.68;;;4.55;;
6388;SDS011;3227;42.654;23.360;2023-09-08T13:29:33;9.65;;;4.70;;
6388;SDS011;3227;42.654;23.360;2023-09-08T13:32:01;9.25;;;5.05;;
6388;SDS011;3227;42.654;23.360;2023-09-08T13:34:27;14.82;;;5.60;;
6388;SDS011;3227;42.654;23.360;2023-09-08T13:36:54;9.55;;;5.32;;
6388;SDS011;3227;42.654;23.360;2023-09-08T13:39:21;9.60;;;4.53;;
6388;SDS011;3227;42.654;23.360;2023-09-08T13:41:48;8.75;;;4.53;;
6388;SDS011;3227;42.654;23.360;2023-09-08T13:44:17;10.15;;;5.32;;
6388;SDS011;3227;42.654;23.360;2023-09-08T13:46:46;10.48;;;4.65;;
6388;SDS011;3227;42.654;23.360;2023-09-08T13:49:13;13.95;;;8.13;;
6388;SDS011;3227;42.654;23.360;2023-09-08T13:51:40;7.22;;;4.70;;
6388;SDS011;3227;42.654;23.360;2023-09-08T13:54:07;8.18;;;4.20;;
6388;SDS011;3227;42.654;23.360;2023-09-08T13:56:34;7.68;;;4.55;;
6388;SDS011;3227;42.654;23.360;2023-09-08T13:59:01;11.45;;;5.18;;
6388;SDS011;3227;42.654;23.360;2023-09-08T14:01:28;6.10;;;3.88;;
6388;SDS011;3227;42.654;23.360;2023-09-08T14:03:56;11.15;;;4.22;;
6388;SDS011;3227;42.654;23.360;2023-09-08T14:06:23;10.18;;;4.72;;
6388;SDS011;3227;42.654;23.360;2023-09-08T14:08:50;7.88;;;4.35;;
6388;SDS011;3227;42.654;23.360;2023-09-08T14:11:16;8.90;;;4.15;;
6388;SDS011;3227;42.654;23.360;2023-09-08T14:13:43;12.60;;;4.25;;
6388;SDS011;3227;42.654;23.360;2023-09-08T14:16:11;7.97;;;4.50;;
6388;SDS011;3227;42.654;23.360;2023-09-08T14:18:38;7.30;;;4.30;;
6388;SDS011;3227;42.654;23.360;2023-09-08T14:21:06;9.63;;;4.40;;
6388;SDS011;3227;42.654;23.360;2023-09-08T14:23:33;15.82;;;5.13;;
6388;SDS011;3227;42.654;23.360;2023-09-08T14:26:02;10.07;;;5.32;;
6388;SDS011;3227;42.654;23.360;2023-09-08T14:28:29;9.32;;;4.55;;
6388;SDS011;3227;42.654;23.360;2023-09-08T14:30:57;8.90;;;4.68;;
6388;SDS011;3227;42.654;23.360;2023-09-08T14:33:24;7.70;;;3.80;;
6388;SDS011;3227;42.654;23.360;2023-09-08T14:35:51;8.55;;;4.07;;
6388;SDS011;3227;42.654;23.360;2023-09-08T14:38:20;8.02;;;4.75;;
6388;SDS011;3227;42.654;23.360;2023-09-08T14:40:53;8.93;;;4.80;;
6388;SDS011;3227;42.654;23.360;2023-09-08T14:43:21;6.68;;;4.38;;
6388;SDS011;3227;42.654;23.360;2023-09-08T14:45:48;8.15;;;4.43;;
6388;SDS011;3227;42.654;23.360;2023-09-08T14:48:15;7.07;;;4.05;;
6388;SDS011;3227;42.654;23.360;2023-09-08T14:50:42;6.70;;;4.10;;
6388;SDS011;3227;42.654;23.360;2023-09-08T14:53:08;8.07;;;4.22;;
6388;SDS011;3227;42.654;23.360;2023-09-08T14:55:36;10.18;;;4.30;;
6388;SDS011;3227;42.654;23.360;2023-09-08T14:58:04;8.73;;;4.57;;
6388;SDS011;3227;42.654;23.360;2023-09-08T15:00:31;12.65;;;4.88;;